createdAt,value
2023-04-09T00:03:04.737Z,22.43
2023-04-09T00:08:08.077Z,23.20
2023-04-09T00:13:11.311Z,22.27
2023-04-09T00:18:16.692Z,23.20
2023-04-09T00:23:20.677Z,23.17
2023-04-09T00:28:23.887Z,20.83
2023-04-09T00:33:28.475Z,22.30
2023-04-09T00:38:32.039Z,27.07
2023-04-09T00:43:34.948Z,21.07
2023-04-09T00:48:39.572Z,22.13
2023-04-09T00:53:43.929Z,22.00
2023-04-09T00:58:47.146Z,21.70
2023-04-09T01:03:52.282Z,21.27
2023-04-09T01:09:04.061Z,21.37
2023-04-09T01:14:21.198Z,19.97
2023-04-09T01:19:42.944Z,20.93
2023-04-09T01:24:58.285Z,20.27
2023-04-09T01:30:11.990Z,19.77
2023-04-09T01:35:15.756Z,22.20
2023-04-09T01:40:19.216Z,20.57
2023-04-09T01:45:24.265Z,20.07
2023-04-09T01:50:28.195Z,20.97
2023-04-09T01:55:31.204Z,19.87
2023-04-09T02:00:39.397Z,19.97
2023-04-09T02:05:47.877Z,20.57
2023-04-09T02:10:55.705Z,18.03
2023-04-09T02:16:01.492Z,18.97
2023-04-09T02:21:05.881Z,21.03
2023-04-09T02:26:08.838Z,19.40
2023-04-09T02:31:13.168Z,20.87
2023-04-09T02:36:16.219Z,20.47
2023-04-09T02:41:19.184Z,20.43
2023-04-09T02:46:23.521Z,19.67
2023-04-09T02:51:27.402Z,21.57
2023-04-09T02:56:30.415Z,21.30
2023-04-09T03:01:35.232Z,19.40
2023-04-09T03:06:38.311Z,20.97
2023-04-09T03:11:41.308Z,20.63
2023-04-09T03:16:48.839Z,19.83
2023-04-09T03:21:52.034Z,19.50
2023-04-09T03:27:00.129Z,23.33
2023-04-09T03:32:05.574Z,23.00
2023-04-09T03:37:11.006Z,20.40
2023-04-09T03:42:14.502Z,20.93
2023-04-09T03:47:24.397Z,21.07
2023-04-09T03:52:28.717Z,20.13
2023-04-09T03:57:37.893Z,24.73
2023-04-09T04:02:48.880Z,23.93
2023-04-09T04:07:53.801Z,21.60
2023-04-09T04:13:03.536Z,20.90
2023-04-09T04:18:23.471Z,22.17
2023-04-09T04:23:29.471Z,23.57
2023-04-09T04:28:47.829Z,20.97
2023-04-09T04:34:04.091Z,23.70
2023-04-09T04:39:10.743Z,23.20
2023-04-09T04:44:29.189Z,23.00
2023-04-09T04:49:45.557Z,23.50
2023-04-09T04:54:49.729Z,24.30
2023-04-09T05:00:00.156Z,24.43
2023-04-09T05:05:05.477Z,25.33
2023-04-09T05:10:14.574Z,29.87
2023-04-09T05:15:19.478Z,24.70
2023-04-09T05:20:24.937Z,25.33
2023-04-09T05:25:42.144Z,29.17
2023-04-09T05:30:52.619Z,35.53
2023-04-09T05:35:57.490Z,32.33
2023-04-09T05:41:00.798Z,34.33
2023-04-09T05:46:04.102Z,36.10
2023-04-09T05:51:09.612Z,35.67
2023-04-09T05:56:16.616Z,37.50
2023-04-09T06:01:38.587Z,40.93
2023-04-09T06:06:43.072Z,45.40
2023-04-09T06:11:46.168Z,42.27
2023-04-09T06:16:49.706Z,43.23
2023-04-09T06:21:54.217Z,47.23
2023-04-09T06:26:57.246Z,51.43
2023-04-09T06:32:00.657Z,52.00
2023-04-09T06:37:05.114Z,49.57
2023-04-09T06:42:08.421Z,47.27
2023-04-09T06:47:24.903Z,44.43
2023-04-09T06:52:29.343Z,46.23
2023-04-09T06:57:32.306Z,49.57
2023-04-09T07:02:35.701Z,49.00
2023-04-09T07:07:40.339Z,47.27
2023-04-09T07:12:43.471Z,48.40
2023-04-09T07:17:46.553Z,42.57
2023-04-09T07:22:51.384Z,29.33
2023-04-09T07:27:54.362Z,27.10
2023-04-09T07:32:59.190Z,29.07
2023-04-09T07:38:03.664Z,24.20
2023-04-09T07:43:07.595Z,27.17
2023-04-09T07:48:10.947Z,25.73
2023-04-09T07:53:15.645Z,24.27
2023-04-09T07:58:18.666Z,25.33
2023-04-09T08:03:22.845Z,22.13
2023-04-09T08:08:27.697Z,22.50
2023-04-09T08:13:31.158Z,24.97
2023-04-09T08:18:34.253Z,22.67
2023-04-09T08:23:38.877Z,23.53
2023-04-09T08:28:42.042Z,26.57
2023-04-09T08:33:45.075Z,22.10
2023-04-09T08:38:49.907Z,23.47
2023-04-09T08:43:58.298Z,25.47
2023-04-09T08:49:02.060Z,25.80
2023-04-09T08:54:06.568Z,24.93
2023-04-09T08:59:10.888Z,26.73
2023-04-09T09:04:13.964Z,26.07
2023-04-09T09:09:19.079Z,26.80
2023-04-09T09:14:22.147Z,30.10
2023-04-09T09:19:33.549Z,26.23
2023-04-09T09:24:49.224Z,25.97
2023-04-09T09:29:53.268Z,26.63
2023-04-09T09:35:02.577Z,26.33
2023-04-09T09:40:09.055Z,25.83
2023-04-09T09:45:19.377Z,25.90
2023-04-09T09:50:25.673Z,25.10
2023-04-09T09:55:32.642Z,26.13
2023-04-09T10:00:38.461Z,26.40
2023-04-09T10:05:43.578Z,23.37
2023-04-09T10:10:48.655Z,23.93
2023-04-09T10:15:53.344Z,25.58
2023-04-09T10:21:01.270Z,23.17
2023-04-09T10:26:08.668Z,22.80
2023-04-09T10:31:12.168Z,23.48
2023-04-09T10:36:15.768Z,22.95
2023-04-09T10:41:26.390Z,23.73
2023-04-09T10:46:36.476Z,23.85
2023-04-09T10:51:40.438Z,25.38
2023-04-09T10:57:13.748Z,25.33
2023-04-09T11:02:50.174Z,23.95
2023-04-09T11:07:59.326Z,25.02
2023-04-09T11:13:07.346Z,23.85
2023-04-09T11:18:12.104Z,23.63
2023-04-09T11:23:19.150Z,22.48
2023-04-09T11:28:24.734Z,22.63
2023-04-09T11:33:33.302Z,20.55
2023-04-09T11:38:39.382Z,20.33
2023-04-09T11:43:44.186Z,19.33
2023-04-09T11:48:48.774Z,17.95
2023-04-09T11:53:52.314Z,16.60
2023-04-09T11:58:56.795Z,17.92
2023-04-09T12:04:00.978Z,18.48
2023-04-09T12:09:04.637Z,19.63
2023-04-09T12:14:15.271Z,19.95
2023-04-09T12:19:19.345Z,17.67
2023-04-09T12:24:25.967Z,16.85
2023-04-09T12:29:30.664Z,16.25
2023-04-09T12:34:33.717Z,16.08
2023-04-09T12:39:36.892Z,15.75
2023-04-09T12:44:41.720Z,15.20
2023-04-09T12:49:46.807Z,16.58
2023-04-09T12:54:52.269Z,16.45
2023-04-09T12:59:58.997Z,15.68
2023-04-09T13:05:02.255Z,14.43
2023-04-09T13:10:06.178Z,14.80
2023-04-09T13:15:11.943Z,14.48
2023-04-09T13:20:18.150Z,14.77
2023-04-09T13:25:21.381Z,14.45
2023-04-09T13:30:25.818Z,14.75
2023-04-09T13:35:28.935Z,14.07
2023-04-09T13:40:32.102Z,12.55
2023-04-09T13:45:37.544Z,12.95
2023-04-09T13:50:40.910Z,12.93
2023-04-09T13:55:45.598Z,13.25
2023-04-09T14:00:51.681Z,13.07
2023-04-09T14:05:54.690Z,13.27
2023-04-09T14:10:57.962Z,11.88
2023-04-09T14:16:02.641Z,11.63
2023-04-09T14:21:08.657Z,11.82
2023-04-09T14:26:13.131Z,10.57
2023-04-09T14:31:22.896Z,11.85
2023-04-09T14:36:27.370Z,11.88
2023-04-09T14:41:30.522Z,12.27
2023-04-09T14:46:35.637Z,11.30
2023-04-09T14:51:39.001Z,11.35
2023-04-09T14:56:42.363Z,11.68
2023-04-09T15:01:47.631Z,12.23
2023-04-09T15:06:52.250Z,10.57
2023-04-09T15:11:59.810Z,11.73
2023-04-09T15:17:04.875Z,11.18
2023-04-09T15:22:08.038Z,11.38
2023-04-09T15:27:12.109Z,10.95
2023-04-09T15:32:16.747Z,10.50
2023-04-09T15:37:19.936Z,10.27
2023-04-09T15:42:24.931Z,10.35
2023-04-09T15:47:31.911Z,10.02
2023-04-09T15:52:36.450Z,9.38
2023-04-09T15:57:52.749Z,10.00
2023-04-09T16:03:02.291Z,9.38
2023-04-09T16:08:06.342Z,10.18
2023-04-09T16:13:09.567Z,8.73
2023-04-09T16:18:14.044Z,8.50
2023-04-09T16:23:20.188Z,9.23
2023-04-09T16:28:23.234Z,9.27
2023-04-09T16:33:27.621Z,9.40
2023-04-09T16:38:31.355Z,9.63
2023-04-09T16:43:37.008Z,9.20
2023-04-09T16:48:41.985Z,9.63
2023-04-09T16:53:45.104Z,8.88
2023-04-09T16:58:49.967Z,8.80
2023-04-09T17:03:54.609Z,9.13
2023-04-09T17:08:57.928Z,9.40
2023-04-09T17:14:01.244Z,8.65
2023-04-09T17:19:05.893Z,9.25
2023-04-09T17:24:08.987Z,8.73
2023-04-09T17:29:12.383Z,8.43
2023-04-09T17:34:20.924Z,9.63
2023-04-09T17:39:29.236Z,8.55
2023-04-09T17:44:35.432Z,10.95
2023-04-09T17:49:40.372Z,8.98
2023-04-09T17:54:45.393Z,9.13
2023-04-09T17:59:49.065Z,10.40
2023-04-09T18:04:53.944Z,9.32
2023-04-09T18:09:57.207Z,10.37
2023-04-09T18:15:00.220Z,9.60
2023-04-09T18:20:04.887Z,9.93
2023-04-09T18:25:08.752Z,9.00
2023-04-09T18:30:12.363Z,8.20
2023-04-09T18:35:17.442Z,8.17
2023-04-09T18:40:20.732Z,7.87
2023-04-09T18:45:24.080Z,8.07
2023-04-09T18:50:28.712Z,7.93
2023-04-09T18:55:31.896Z,7.67
2023-04-09T19:00:35.126Z,7.60
2023-04-09T19:05:39.765Z,7.03
2023-04-09T19:10:42.782Z,10.43
2023-04-09T19:15:46.065Z,7.50
2023-04-09T19:20:51.031Z,8.03
2023-04-09T19:25:55.398Z,7.30
2023-04-09T19:31:02.710Z,10.13
2023-04-09T19:36:08.733Z,8.87
2023-04-09T19:41:11.844Z,8.23
2023-04-09T19:46:14.890Z,8.63
2023-04-09T19:51:20.186Z,8.80
2023-04-09T19:56:23.342Z,8.63
2023-04-09T20:01:26.737Z,8.57
2023-04-09T20:06:31.801Z,8.23
2023-04-09T20:11:35.539Z,8.37
2023-04-09T20:16:40.883Z,9.10
2023-04-09T20:21:45.286Z,7.83
2023-04-09T20:26:48.815Z,8.87
2023-04-09T20:31:52.004Z,8.90
2023-04-09T20:36:56.835Z,9.60
2023-04-09T20:42:00.380Z,8.83
2023-04-09T20:47:03.516Z,10.00
2023-04-09T20:52:09.546Z,9.80
2023-04-09T20:57:14.060Z,10.80
2023-04-09T21:02:18.054Z,9.17
2023-04-09T21:07:22.939Z,10.93
2023-04-09T21:12:28.028Z,9.60
2023-04-09T21:17:32.945Z,11.77
2023-04-09T21:22:37.465Z,10.77
2023-04-09T21:27:40.988Z,10.40
2023-04-09T21:32:44.011Z,10.30
2023-04-09T21:37:48.713Z,11.37
2023-04-09T21:42:52.489Z,12.10
2023-04-09T21:47:55.821Z,11.20
2023-04-09T21:53:00.714Z,11.87
2023-04-09T21:58:04.021Z,12.23
2023-04-09T22:03:07.336Z,12.57
2023-04-09T22:08:13.250Z,10.27
2023-04-09T22:13:16.595Z,10.57
2023-04-09T22:18:19.676Z,10.83
2023-04-09T22:23:24.148Z,13.83
2023-04-09T22:28:27.793Z,14.63
2023-04-09T22:33:30.872Z,10.47
2023-04-09T22:38:36.132Z,12.13
2023-04-09T22:43:39.093Z,10.23
2023-04-09T22:48:44.887Z,9.47
2023-04-09T22:53:52.014Z,9.60
2023-04-09T22:58:55.217Z,9.27
2023-04-09T23:03:58.569Z,10.60
2023-04-09T23:09:03.238Z,11.33
2023-04-09T23:14:06.539Z,10.50
2023-04-09T23:19:09.631Z,10.13
2023-04-09T23:24:14.050Z,10.77
2023-04-09T23:29:17.123Z,11.30
2023-04-09T23:34:20.399Z,10.07
2023-04-09T23:39:25.146Z,10.70
2023-04-09T23:44:28.562Z,9.93
2023-04-09T23:49:31.744Z,10.20
2023-04-09T23:54:36.290Z,10.80
2023-04-09T23:59:39.315Z,9.57
